createdAt,value
2023-04-16T00:00:48.543Z,14.20
2023-04-16T00:03:31.822Z,10.90
2023-04-16T00:06:00.727Z,10.60
2023-04-16T00:08:28.639Z,12.30
2023-04-16T00:10:56.627Z,11.60
2023-04-16T00:13:26.251Z,11.20
2023-04-16T00:15:54.402Z,10.20
2023-04-16T00:18:22.431Z,9.30
2023-04-16T00:20:50.904Z,13.60
2023-04-16T00:23:19.000Z,10.20
2023-04-16T00:25:47.049Z,10.00
2023-04-16T00:28:14.958Z,9.60
2023-04-16T00:30:42.899Z,10.20
2023-04-16T00:33:10.967Z,9.00
2023-04-16T00:35:38.945Z,10.00
2023-04-16T00:38:06.942Z,9.20
2023-04-16T00:40:34.924Z,9.90
2023-04-16T00:43:02.896Z,8.10
2023-04-16T00:45:30.934Z,11.60
2023-04-16T00:48:00.838Z,10.30
2023-04-16T00:50:29.637Z,10.20
2023-04-16T00:52:58.345Z,11.60
2023-04-16T00:55:27.641Z,10.70
2023-04-16T00:57:55.687Z,10.40
2023-04-16T01:00:23.878Z,10.70
2023-04-16T01:02:53.737Z,11.10
2023-04-16T01:05:22.279Z,10.90
2023-04-16T01:07:51.347Z,9.90
2023-04-16T01:10:19.369Z,9.60
2023-04-16T01:12:47.323Z,8.60
2023-04-16T01:15:15.364Z,11.40
2023-04-16T01:17:46.284Z,9.40
2023-04-16T01:20:15.319Z,8.10
2023-04-16T01:22:43.503Z,8.40
2023-04-16T01:25:15.836Z,9.20
2023-04-16T01:27:43.878Z,9.20
2023-04-16T01:30:12.055Z,11.60
2023-04-16T01:32:51.696Z,7.90
2023-04-16T01:35:19.786Z,9.00
2023-04-16T01:37:50.314Z,8.80
2023-04-16T01:40:18.740Z,8.00
2023-04-16T01:42:46.807Z,7.00
2023-04-16T01:45:14.835Z,8.00
2023-04-16T01:47:42.952Z,9.10
2023-04-16T01:50:11.685Z,7.80
2023-04-16T01:52:39.874Z,8.40
2023-04-16T01:55:08.231Z,7.30
2023-04-16T01:57:36.291Z,7.40
2023-04-16T02:00:06.407Z,8.30
2023-04-16T02:02:35.570Z,5.70
2023-04-16T02:05:04.026Z,6.00
2023-04-16T02:07:32.118Z,6.50
2023-04-16T02:10:00.057Z,8.10
2023-04-16T02:12:29.920Z,7.80
2023-04-16T02:14:58.262Z,6.40
2023-04-16T02:17:28.141Z,5.60
2023-04-16T02:20:09.551Z,5.60
2023-04-16T02:22:40.995Z,6.40
2023-04-16T02:25:09.249Z,6.20
2023-04-16T02:27:37.547Z,5.50
2023-04-16T02:30:18.112Z,8.30
2023-04-16T02:32:46.198Z,6.40
2023-04-16T02:35:14.829Z,9.20
2023-04-16T02:37:43.002Z,6.80
2023-04-16T02:40:11.710Z,6.90
2023-04-16T02:42:39.757Z,5.80
2023-04-16T02:45:09.269Z,8.40
2023-04-16T02:47:37.449Z,6.90
2023-04-16T02:50:06.400Z,7.80
2023-04-16T02:52:34.480Z,5.70
2023-04-16T02:55:02.792Z,6.80
2023-04-16T02:57:30.848Z,5.00
2023-04-16T02:59:59.382Z,7.30
2023-04-16T03:02:27.581Z,5.80
2023-04-16T03:04:56.047Z,5.10
2023-04-16T03:07:24.524Z,4.90
2023-04-16T03:09:52.399Z,5.10
2023-04-16T03:12:20.457Z,5.10
2023-04-16T03:14:51.574Z,6.90
2023-04-16T03:19:47.661Z,7.10
2023-04-16T03:22:16.051Z,6.30
2023-04-16T03:24:44.016Z,6.40
2023-04-16T03:27:12.103Z,7.60
2023-04-16T03:29:40.171Z,7.30
2023-04-16T03:32:08.149Z,7.70
2023-04-16T03:34:37.112Z,6.30
2023-04-16T03:37:06.332Z,7.30
2023-04-16T03:39:34.860Z,9.80
2023-04-16T03:42:03.802Z,9.70
2023-04-16T03:44:31.693Z,6.40
2023-04-16T03:46:59.618Z,5.80
2023-04-16T03:49:27.863Z,8.00
2023-04-16T03:51:55.930Z,9.60
2023-04-16T03:54:23.999Z,7.20
2023-04-16T03:56:57.538Z,9.20
2023-04-16T03:59:25.835Z,10.10
2023-04-16T04:01:54.086Z,10.10
2023-04-16T04:04:22.369Z,7.70
2023-04-16T04:06:50.495Z,8.80
2023-04-16T04:09:18.609Z,6.30
2023-04-16T04:11:47.695Z,7.10
2023-04-16T04:14:15.830Z,9.30
2023-04-16T04:16:43.925Z,10.50
2023-04-16T04:19:12.245Z,6.10
2023-04-16T04:21:40.709Z,6.00
2023-04-16T04:24:10.493Z,8.90
2023-04-16T04:26:38.517Z,7.20
2023-04-16T04:29:06.658Z,7.60
2023-04-16T04:31:36.013Z,7.20
2023-04-16T04:34:04.297Z,8.60
2023-04-16T04:36:32.455Z,7.20
2023-04-16T04:39:02.045Z,4.70
2023-04-16T04:41:30.421Z,6.50
2023-04-16T04:43:58.378Z,5.60
2023-04-16T04:46:26.609Z,5.10
2023-04-16T04:48:54.664Z,6.50
2023-04-16T04:51:22.640Z,5.80
2023-04-16T04:53:50.560Z,6.20
2023-04-16T04:56:18.573Z,4.60
2023-04-16T04:58:46.636Z,4.90
2023-04-16T05:01:14.636Z,6.20
2023-04-16T05:03:42.757Z,6.00
2023-04-16T05:06:10.829Z,5.80
2023-04-16T05:08:38.818Z,8.30
2023-04-16T05:11:06.705Z,6.60
2023-04-16T05:13:34.658Z,5.50
2023-04-16T05:16:02.624Z,6.50
2023-04-16T05:18:31.221Z,6.80
2023-04-16T05:20:59.286Z,6.50
2023-04-16T05:23:27.274Z,7.00
2023-04-16T05:25:55.419Z,7.50
2023-04-16T05:28:23.482Z,5.90
2023-04-16T05:30:51.754Z,7.10
2023-04-16T05:33:19.801Z,7.20
2023-04-16T05:35:47.819Z,9.50
2023-04-16T05:38:15.884Z,7.00
2023-04-16T05:40:43.762Z,8.60
2023-04-16T05:43:11.736Z,8.30
2023-04-16T05:45:41.394Z,6.70
2023-04-16T05:48:10.170Z,4.20
2023-04-16T05:50:38.742Z,5.90
2023-04-16T05:53:08.572Z,5.20
2023-04-16T05:55:39.471Z,6.40
2023-04-16T05:58:07.490Z,8.80
2023-04-16T06:00:36.069Z,4.20
2023-04-16T06:03:04.624Z,10.00
2023-04-16T06:05:32.831Z,5.40
2023-04-16T06:08:01.170Z,6.60
2023-04-16T06:10:29.476Z,7.10
2023-04-16T06:12:57.404Z,9.80
2023-04-16T06:15:25.327Z,8.70
2023-04-16T06:17:54.924Z,8.60
2023-04-16T06:20:23.000Z,8.30
2023-04-16T06:22:51.096Z,5.40
2023-04-16T06:25:19.058Z,9.00
2023-04-16T06:27:47.080Z,5.80
2023-04-16T06:30:16.407Z,5.40
2023-04-16T06:32:44.852Z,4.40
2023-04-16T06:35:12.927Z,6.30
2023-04-16T06:37:41.533Z,4.70
2023-04-16T06:40:10.174Z,7.10
2023-04-16T06:42:38.371Z,4.50
2023-04-16T06:45:07.594Z,7.00
2023-04-16T06:47:35.818Z,3.60
2023-04-16T06:50:04.037Z,6.70
2023-04-16T06:52:32.145Z,6.50
2023-04-16T06:55:00.260Z,6.20
2023-04-16T06:57:28.183Z,5.30
2023-04-16T06:59:56.364Z,5.80
2023-04-16T07:02:24.556Z,4.50
2023-04-16T07:04:52.726Z,6.30
2023-04-16T07:07:20.788Z,4.50
2023-04-16T07:09:48.842Z,4.70
2023-04-16T07:12:16.960Z,9.60
2023-04-16T07:14:44.893Z,7.50
2023-04-16T07:17:12.812Z,5.00
2023-04-16T07:19:41.073Z,9.50
2023-04-16T07:22:08.949Z,6.30
2023-04-16T07:24:36.898Z,5.10
2023-04-16T07:27:04.866Z,6.10
2023-04-16T07:29:33.489Z,9.70
2023-04-16T07:32:01.712Z,5.00
2023-04-16T07:34:29.803Z,4.90
2023-04-16T07:36:57.565Z,5.60
2023-04-16T07:39:25.451Z,6.40
2023-04-16T07:41:53.289Z,5.20
2023-04-16T07:44:21.313Z,4.60
2023-04-16T07:46:49.172Z,4.70
2023-04-16T07:49:17.361Z,4.50
2023-04-16T07:51:45.480Z,6.90
2023-04-16T07:54:13.417Z,3.80
2023-04-16T07:56:41.397Z,10.20
2023-04-16T07:59:22.112Z,4.00
2023-04-16T08:01:53.968Z,5.30
2023-04-16T08:06:54.491Z,3.20
2023-04-16T08:09:24.343Z,7.20
2023-04-16T08:11:52.299Z,3.30
2023-04-16T08:14:20.389Z,4.80
2023-04-16T08:16:50.046Z,3.90
2023-04-16T08:19:18.202Z,5.20
2023-04-16T08:21:47.350Z,5.80
2023-04-16T08:24:15.693Z,3.90
2023-04-16T08:26:43.790Z,4.20
2023-04-16T08:29:11.962Z,5.90
2023-04-16T08:31:41.421Z,4.40
2023-04-16T08:34:11.564Z,4.50
2023-04-16T08:36:41.037Z,3.90
2023-04-16T08:39:09.611Z,6.40
2023-04-16T08:41:42.420Z,5.20
2023-04-16T08:44:19.885Z,4.00
2023-04-16T08:46:48.747Z,6.60
2023-04-16T08:49:18.338Z,4.10
2023-04-16T08:51:59.151Z,8.00
2023-04-16T08:54:32.675Z,4.60
2023-04-16T08:57:05.859Z,5.00
2023-04-16T08:59:34.731Z,3.70
2023-04-16T09:02:03.070Z,4.30
2023-04-16T09:04:32.701Z,4.10
2023-04-16T09:07:05.395Z,3.40
2023-04-16T09:09:34.699Z,5.80
2023-04-16T09:12:03.374Z,8.90
2023-04-16T09:14:31.306Z,2.70
2023-04-16T09:17:02.520Z,3.50
2023-04-16T09:19:30.743Z,2.70
2023-04-16T09:21:58.825Z,2.60
2023-04-16T09:24:27.133Z,2.90
2023-04-16T09:26:55.212Z,3.90
2023-04-16T09:29:43.475Z,3.00
2023-04-16T09:32:12.367Z,5.60
2023-04-16T09:35:00.676Z,5.10
2023-04-16T09:37:30.518Z,7.30
2023-04-16T09:40:00.852Z,3.20
2023-04-16T09:42:31.777Z,4.30
2023-04-16T09:45:03.327Z,1.90
2023-04-16T09:47:42.111Z,6.10
2023-04-16T09:50:18.749Z,4.10
2023-04-16T09:52:53.946Z,1.70
2023-04-16T09:55:27.798Z,2.20
2023-04-16T09:58:01.278Z,1.60
2023-04-16T10:00:31.513Z,2.50
2023-04-16T10:03:07.347Z,2.70
2023-04-16T10:05:37.066Z,2.50
2023-04-16T10:08:12.255Z,2.40
2023-04-16T10:10:43.617Z,2.20
2023-04-16T10:13:12.987Z,2.80
2023-04-16T10:15:42.093Z,3.00
2023-04-16T10:18:11.563Z,3.20
2023-04-16T10:20:39.759Z,3.30
2023-04-16T10:23:07.967Z,2.40
2023-04-16T10:25:36.610Z,3.20
2023-04-16T10:28:05.566Z,2.20
2023-04-16T10:30:33.963Z,6.50
2023-04-16T10:33:07.868Z,3.30
2023-04-16T10:35:40.555Z,3.40
2023-04-16T10:38:28.550Z,2.40
2023-04-16T10:41:02.223Z,3.80
2023-04-16T10:43:31.870Z,2.70
2023-04-16T10:46:32.985Z,2.20
2023-04-16T10:49:03.253Z,3.50
2023-04-16T10:51:34.632Z,3.50
2023-04-16T10:54:28.510Z,1.70
2023-04-16T10:57:04.446Z,2.50
2023-04-16T10:59:35.684Z,2.70
2023-04-16T11:02:16.607Z,2.70
2023-04-16T11:04:46.468Z,6.90
2023-04-16T11:07:32.192Z,2.50
2023-04-16T11:10:04.406Z,3.00
2023-04-16T11:12:37.920Z,2.00
2023-04-16T11:15:10.750Z,4.80
2023-04-16T11:17:43.064Z,3.40
2023-04-16T11:20:19.018Z,2.20
2023-04-16T11:22:53.735Z,3.50
2023-04-16T11:25:27.337Z,2.40
2023-04-16T11:27:57.069Z,3.00
2023-04-16T11:30:34.137Z,2.40
2023-04-16T11:33:03.838Z,5.10
2023-04-16T11:35:32.493Z,2.20
2023-04-16T11:38:00.690Z,6.10
2023-04-16T11:40:31.854Z,2.60
2023-04-16T11:43:12.632Z,1.90
2023-04-16T11:45:56.256Z,5.00
2023-04-16T11:48:24.528Z,2.50
2023-04-16T11:50:59.293Z,3.10
2023-04-16T11:53:27.344Z,3.40
2023-04-16T11:55:55.419Z,4.50
2023-04-16T11:58:23.659Z,3.30
2023-04-16T12:00:56.969Z,2.00
2023-04-16T12:03:46.186Z,1.80
2023-04-16T12:06:15.526Z,2.30
2023-04-16T12:08:43.498Z,2.70
2023-04-16T12:11:11.483Z,4.30
2023-04-16T12:13:40.314Z,1.50
2023-04-16T12:16:21.209Z,2.10
2023-04-16T12:19:01.720Z,2.10
2023-04-16T12:22:00.863Z,2.70
2023-04-16T12:24:32.353Z,12.10
2023-04-16T12:27:03.192Z,2.60
2023-04-16T12:29:31.996Z,1.60
2023-04-16T12:32:00.080Z,3.20
2023-04-16T12:34:48.525Z,2.20
2023-04-16T12:37:16.679Z,2.80
2023-04-16T12:39:45.477Z,2.00
2023-04-16T12:42:14.937Z,1.60
2023-04-16T12:44:42.939Z,2.90
2023-04-16T12:47:11.424Z,3.50
2023-04-16T12:49:39.463Z,3.50
2023-04-16T12:52:07.717Z,2.60
2023-04-16T12:54:35.805Z,4.60
2023-04-16T12:57:03.921Z,2.50
2023-04-16T12:59:31.997Z,3.10
2023-04-16T13:02:01.645Z,3.10
2023-04-16T13:04:30.095Z,4.80
2023-04-16T13:06:58.214Z,4.10
2023-04-16T13:09:27.104Z,2.70
2023-04-16T13:11:55.114Z,2.50
2023-04-16T13:14:23.110Z,4.70
2023-04-16T13:16:50.971Z,4.90
2023-04-16T13:19:19.362Z,4.70
2023-04-16T13:21:47.319Z,7.20
2023-04-16T13:24:15.568Z,3.60
2023-04-16T13:26:43.603Z,6.20
2023-04-16T13:29:11.908Z,4.30
2023-04-16T13:31:40.367Z,3.40
2023-04-16T13:34:08.269Z,2.70
2023-04-16T13:36:36.154Z,2.50
2023-04-16T13:39:05.427Z,3.40
2023-04-16T13:41:33.395Z,3.20
2023-04-16T13:44:01.311Z,2.10
2023-04-16T13:46:29.596Z,3.00
2023-04-16T13:48:57.818Z,2.40
2023-04-16T13:51:27.214Z,5.70
2023-04-16T13:53:57.982Z,3.00
2023-04-16T13:56:26.061Z,3.70
2023-04-16T13:58:54.068Z,2.80
2023-04-16T14:01:22.084Z,2.70
2023-04-16T14:03:50.196Z,3.70
2023-04-16T14:06:18.407Z,3.10
2023-04-16T14:08:46.423Z,3.10
2023-04-16T14:11:14.409Z,3.30
2023-04-16T14:13:42.352Z,3.60
2023-04-16T14:16:10.793Z,4.30
2023-04-16T14:18:42.485Z,4.80
2023-04-16T14:21:10.752Z,3.40
2023-04-16T14:23:38.715Z,2.80
2023-04-16T14:26:06.694Z,3.60
2023-04-16T14:28:35.865Z,2.70
2023-04-16T14:31:03.962Z,4.80
2023-04-16T14:33:32.382Z,2.60
2023-04-16T14:36:02.720Z,2.10
2023-04-16T14:38:32.097Z,7.40
2023-04-16T14:41:00.649Z,3.10
2023-04-16T14:43:28.916Z,6.10
2023-04-16T14:45:59.061Z,9.30
2023-04-16T14:48:27.038Z,4.40
2023-04-16T14:50:55.037Z,5.20
2023-04-16T14:53:24.527Z,6.00
2023-04-16T14:55:53.452Z,4.40
2023-04-16T14:58:22.012Z,6.30
2023-04-16T15:00:49.966Z,4.70
2023-04-16T15:03:18.188Z,4.60
2023-04-16T15:05:50.875Z,7.60
2023-04-16T15:08:18.772Z,4.90
2023-04-16T15:10:46.736Z,6.80
2023-04-16T15:13:14.779Z,4.80
2023-04-16T15:15:43.977Z,4.70
2023-04-16T15:18:12.151Z,4.90
2023-04-16T15:20:40.159Z,4.40
2023-04-16T15:23:08.241Z,4.10
2023-04-16T15:25:36.245Z,3.60
2023-04-16T15:28:04.527Z,4.00
2023-04-16T15:30:32.486Z,2.70
2023-04-16T15:33:00.784Z,4.30
2023-04-16T15:35:28.850Z,7.00
2023-04-16T15:37:56.919Z,5.50
2023-04-16T15:40:25.240Z,3.50
2023-04-16T15:42:56.023Z,4.20
2023-04-16T15:47:52.296Z,7.50
2023-04-16T15:50:20.987Z,3.70
2023-04-16T15:52:49.214Z,5.80
2023-04-16T15:55:18.270Z,4.20
2023-04-16T15:57:46.526Z,8.40
2023-04-16T16:00:17.214Z,6.90
2023-04-16T16:02:47.161Z,4.70
2023-04-16T16:05:17.004Z,5.60
2023-04-16T16:07:45.597Z,4.60
2023-04-16T16:10:13.708Z,4.40
2023-04-16T16:12:41.926Z,5.60
2023-04-16T16:15:11.314Z,4.90
2023-04-16T16:17:40.696Z,2.90
2023-04-16T16:20:10.849Z,3.90
2023-04-16T16:22:40.257Z,6.10
2023-04-16T16:25:10.247Z,4.10
2023-04-16T16:27:38.254Z,4.40
2023-04-16T16:30:07.743Z,3.80
2023-04-16T16:32:36.041Z,3.90
2023-04-16T16:35:04.441Z,3.20
2023-04-16T16:37:32.481Z,6.60
2023-04-16T16:40:00.770Z,4.90
2023-04-16T16:42:28.969Z,7.10
2023-04-16T16:44:57.629Z,7.70
2023-04-16T16:47:26.257Z,8.40
2023-04-16T16:49:54.837Z,7.80
2023-04-16T16:52:24.314Z,6.40
2023-04-16T16:54:56.913Z,9.20
2023-04-16T16:57:25.023Z,12.60
2023-04-16T16:59:54.484Z,8.20
2023-04-16T17:02:23.246Z,8.10
2023-04-16T17:04:52.802Z,14.80
2023-04-16T17:07:20.977Z,18.60
2023-04-16T17:09:48.889Z,19.30
2023-04-16T17:12:16.802Z,7.30
2023-04-16T17:14:44.796Z,5.30
2023-04-16T17:17:12.853Z,4.50
2023-04-16T17:19:40.821Z,5.40
2023-04-16T17:22:11.856Z,16.70
2023-04-16T17:24:39.827Z,11.80
2023-04-16T17:27:07.694Z,10.60
2023-04-16T17:29:35.968Z,8.90
2023-04-16T17:32:04.286Z,9.50
2023-04-16T17:34:32.196Z,8.10
2023-04-16T17:37:00.432Z,11.50
2023-04-16T17:39:28.383Z,15.30
2023-04-16T17:41:58.729Z,11.40
2023-04-16T17:44:28.034Z,12.90
2023-04-16T17:46:56.102Z,12.50
2023-04-16T17:49:24.133Z,10.30
2023-04-16T17:51:54.069Z,14.70
2023-04-16T17:54:21.997Z,15.10
2023-04-16T17:56:49.912Z,19.00
2023-04-16T17:59:17.843Z,13.70
2023-04-16T18:01:46.020Z,10.30
2023-04-16T18:04:14.328Z,15.40
2023-04-16T18:06:42.544Z,11.30
2023-04-16T18:09:10.666Z,15.80
2023-04-16T18:11:38.622Z,13.80
2023-04-16T18:14:06.540Z,16.10
2023-04-16T18:16:34.578Z,19.80
2023-04-16T18:19:02.517Z,27.20
2023-04-16T18:21:31.645Z,25.40
2023-04-16T18:24:01.066Z,22.40
2023-04-16T18:26:30.072Z,32.10
2023-04-16T18:29:06.815Z,36.10
2023-04-16T18:31:34.733Z,30.80
2023-04-16T18:34:03.046Z,24.70
2023-04-16T18:36:31.608Z,25.70
2023-04-16T18:39:02.123Z,22.20
2023-04-16T18:41:31.394Z,24.00
2023-04-16T18:43:59.442Z,28.20
2023-04-16T18:46:27.635Z,28.60
2023-04-16T18:48:56.035Z,23.80
2023-04-16T18:51:25.161Z,18.90
2023-04-16T18:53:53.212Z,18.00
2023-04-16T18:56:21.792Z,14.00
2023-04-16T18:58:49.696Z,12.40
2023-04-16T19:01:18.409Z,15.60
2023-04-16T19:03:46.519Z,19.20
2023-04-16T19:06:14.748Z,19.20
2023-04-16T19:08:42.613Z,19.40
2023-04-16T19:11:10.718Z,19.00
2023-04-16T19:13:39.441Z,17.00
2023-04-16T19:16:11.642Z,15.40
2023-04-16T19:18:39.943Z,16.40
2023-04-16T19:21:10.133Z,16.40
2023-04-16T19:23:38.167Z,17.00
2023-04-16T19:26:06.380Z,13.40
2023-04-16T19:28:34.351Z,12.10
2023-04-16T19:31:02.257Z,9.40
2023-04-16T19:33:31.439Z,10.00
2023-04-16T19:36:00.518Z,11.80
2023-04-16T19:38:29.177Z,12.40
2023-04-16T19:40:57.195Z,15.60
2023-04-16T19:43:25.444Z,12.80
2023-04-16T19:45:54.315Z,12.20
2023-04-16T19:48:22.468Z,14.20
2023-04-16T19:50:52.807Z,12.60
2023-04-16T19:53:21.631Z,23.80
2023-04-16T19:55:50.065Z,39.10
2023-04-16T19:58:21.324Z,39.20
2023-04-16T20:00:49.396Z,34.20
2023-04-16T20:03:18.188Z,36.40
2023-04-16T20:05:49.656Z,27.70
2023-04-16T20:08:17.730Z,17.30
2023-04-16T20:10:46.015Z,18.00
2023-04-16T20:13:16.097Z,20.40
2023-04-16T20:15:54.091Z,23.10
2023-04-16T20:18:25.982Z,18.70
2023-04-16T20:23:22.822Z,16.50
2023-04-16T20:25:52.336Z,14.60
2023-04-16T20:28:21.622Z,12.00
2023-04-16T20:30:52.113Z,10.80
2023-04-16T20:33:20.417Z,10.00
2023-04-16T20:35:49.238Z,8.70
2023-04-16T20:38:18.407Z,13.70
2023-04-16T20:40:47.275Z,13.00
2023-04-16T20:43:18.759Z,11.40
2023-04-16T20:45:46.983Z,11.70
2023-04-16T20:48:15.049Z,11.20
2023-04-16T20:50:43.159Z,13.80
2023-04-16T20:53:11.173Z,21.60
2023-04-16T20:55:39.206Z,23.60
2023-04-16T20:58:07.204Z,16.90
2023-04-16T21:00:35.320Z,25.20
2023-04-16T21:03:06.618Z,16.00
2023-04-16T21:05:34.722Z,15.20
2023-04-16T21:08:03.168Z,14.50
2023-04-16T21:10:32.582Z,15.00
2023-04-16T21:13:00.672Z,14.20
2023-04-16T21:15:28.665Z,12.10
2023-04-16T21:18:00.181Z,11.00
2023-04-16T21:20:30.641Z,15.60
2023-04-16T21:22:59.240Z,10.50
2023-04-16T21:25:27.354Z,10.20
2023-04-16T21:27:55.653Z,5.40
2023-04-16T21:30:23.716Z,7.10
2023-04-16T21:32:51.785Z,5.40
2023-04-16T21:35:19.900Z,6.30
2023-04-16T21:37:47.993Z,7.10
2023-04-16T21:40:16.241Z,7.70
2023-04-16T21:42:44.624Z,6.60
2023-04-16T21:45:14.628Z,8.10
2023-04-16T21:47:42.776Z,7.80
2023-04-16T21:50:11.963Z,10.20
2023-04-16T21:52:40.585Z,6.30
2023-04-16T21:55:09.953Z,5.70
2023-04-16T21:57:40.761Z,5.40
2023-04-16T22:00:13.761Z,5.70
2023-04-16T22:02:43.252Z,4.30
2023-04-16T22:05:11.762Z,3.90
2023-04-16T22:07:39.970Z,4.20
2023-04-16T22:10:09.149Z,4.90
2023-04-16T22:12:40.102Z,4.10
2023-04-16T22:15:09.217Z,4.50
2023-04-16T22:17:37.326Z,3.30
2023-04-16T22:20:09.419Z,6.30
2023-04-16T22:22:37.690Z,3.90
2023-04-16T22:25:06.366Z,5.00
2023-04-16T22:27:34.572Z,6.00
2023-04-16T22:30:03.980Z,6.20
2023-04-16T22:32:33.218Z,6.40
2023-04-16T22:35:02.144Z,5.30
2023-04-16T22:37:30.130Z,5.30
2023-04-16T22:39:58.235Z,3.20
2023-04-16T22:42:26.362Z,5.30
2023-04-16T22:44:54.352Z,4.80
2023-04-16T22:47:22.698Z,3.20
2023-04-16T22:49:50.945Z,6.80
2023-04-16T22:52:18.869Z,5.80
2023-04-16T22:54:46.875Z,4.10
2023-04-16T22:57:14.945Z,5.50
2023-04-16T22:59:42.893Z,4.90
2023-04-16T23:02:10.860Z,4.50
2023-04-16T23:04:38.786Z,3.90
2023-04-16T23:07:06.930Z,2.50
2023-04-16T23:09:34.969Z,3.90
2023-04-16T23:12:03.046Z,3.40
2023-04-16T23:14:31.622Z,4.10
2023-04-16T23:16:59.876Z,3.40
2023-04-16T23:19:27.974Z,3.80
2023-04-16T23:21:56.149Z,6.50
2023-04-16T23:24:24.327Z,4.40
2023-04-16T23:26:52.814Z,5.10
2023-04-16T23:29:21.006Z,5.20
2023-04-16T23:31:49.048Z,6.50
2023-04-16T23:34:17.006Z,7.30
2023-04-16T23:36:45.137Z,4.40
2023-04-16T23:39:13.276Z,6.90
2023-04-16T23:41:41.530Z,6.50
2023-04-16T23:44:09.616Z,5.00
2023-04-16T23:46:39.006Z,4.30
2023-04-16T23:49:07.067Z,3.70
2023-04-16T23:51:35.063Z,5.60
2023-04-16T23:54:03.116Z,7.40
2023-04-16T23:56:31.447Z,5.00
2023-04-16T23:58:59.467Z,5.60
